sensor_id;sensor_type;location;lat;lon;timestamp;pressure;altitude;pressure_sealevel;temperature;humidity
49341;BME280;35209;51.050;13.678;2023-04-06T00:02:05;100424.91;;;0.79;79.84
49341;BME280;35209;51.050;13.678;2023-04-06T00:07:06;100427.16;;;1.16;79.30
49341;BME280;35209;51.050;13.678;2023-04-06T00:12:08;100431.06;;;0.87;80.35
49341;BME280;35209;51.050;13.678;2023-04-06T00:17:10;100424.09;;;0.83;80.72
49341;BME280;35209;51.050;13.678;2023-04-06T00:22:12;100423.22;;;0.81;80.67
49341;BME280;35209;51.050;13.678;2023-04-06T00:27:14;100427.59;;;0.85;80.75
49341;BME280;35209;51.050;13.678;2023-04-06T00:32:16;100426.81;;;0.89;81.31
49341;BME280;35209;51.050;13.678;2023-04-06T00:37:18;100414.16;;;1.15;81.04
49341;BME280;35209;51.050;13.678;2023-04-06T00:42:21;100420.81;;;0.94;80.99
49341;BME280;35209;51.050;13.678;2023-04-06T00:47:28;100420.78;;;0.91;81.93
49341;BME280;35209;51.050;13.678;2023-04-06T00:52:30;100416.09;;;1.31;79.82
49341;BME280;35209;51.050;13.678;2023-04-06T00:57:32;100421.22;;;1.28;79.38
49341;BME280;35209;51.050;13.678;2023-04-06T01:02:34;100429.97;;;1.35;78.65
49341;BME280;35209;51.050;13.678;2023-04-06T01:07:36;100426.28;;;1.16;78.72
49341;BME280;35209;51.050;13.678;2023-04-06T01:12:49;100420.03;;;0.98;79.49
49341;BME280;35209;51.050;13.678;2023-04-06T01:18:02;100410.59;;;1.05;79.23
49341;BME280;35209;51.050;13.678;2023-04-06T01:23:04;100413.75;;;0.81;80.03
49341;BME280;35209;51.050;13.678;2023-04-06T01:28:07;100415.69;;;0.97;79.58
49341;BME280;35209;51.050;13.678;2023-04-06T01:33:28;100408.47;;;0.75;80.27
49341;BME280;35209;51.050;13.678;2023-04-06T01:38:34;100407.28;;;0.53;81.31
49341;BME280;35209;51.050;13.678;2023-04-06T01:43:37;100407.16;;;0.44;81.71
49341;BME280;35209;51.050;13.678;2023-04-06T01:48:42;100402.81;;;0.41;81.36
49341;BME280;35209;51.050;13.678;2023-04-06T01:54:14;100402.63;;;0.31;82.23
49341;BME280;35209;51.050;13.678;2023-04-06T01:59:51;100408.66;;;0.30;82.14
49341;BME280;35209;51.050;13.678;2023-04-06T02:05:13;100398.53;;;0.43;81.40
49341;BME280;35209;51.050;13.678;2023-04-06T02:10:17;100411.78;;;0.65;80.67
49341;BME280;35209;51.050;13.678;2023-04-06T02:15:19;100403.16;;;0.64;80.14
49341;BME280;35209;51.050;13.678;2023-04-06T02:20:21;100401.22;;;0.49;80.05
49341;BME280;35209;51.050;13.678;2023-04-06T02:25:24;100394.88;;;0.31;80.27
49341;BME280;35209;51.050;13.678;2023-04-06T02:30:26;100397.25;;;0.15;81.18
49341;BME280;35209;51.050;13.678;2023-04-06T02:35:28;100392.56;;;-0.06;81.93
49341;BME280;35209;51.050;13.678;2023-04-06T02:40:31;100382.22;;;-0.07;81.78
49341;BME280;35209;51.050;13.678;2023-04-06T02:45:45;100394.44;;;0.03;81.97
49341;BME280;35209;51.050;13.678;2023-04-06T02:50:48;100391.69;;;-0.08;82.17
49341;BME280;35209;51.050;13.678;2023-04-06T02:55:50;100386.09;;;-0.32;83.32
49341;BME280;35209;51.050;13.678;2023-04-06T03:00:51;100385.84;;;-0.47;83.51
49341;BME280;35209;51.050;13.678;2023-04-06T03:05:53;100394.97;;;-0.63;84.87
49341;BME280;35209;51.050;13.678;2023-04-06T03:11:01;100385.84;;;-0.46;84.62
49341;BME280;35209;51.050;13.678;2023-04-06T03:16:11;100383.44;;;-0.37;84.02
49341;BME280;35209;51.050;13.678;2023-04-06T03:21:13;100388.84;;;-0.70;85.17
49341;BME280;35209;51.050;13.678;2023-04-06T03:26:22;100391.19;;;-0.82;85.47
49341;BME280;35209;51.050;13.678;2023-04-06T03:31:26;100396.16;;;-0.91;86.63
49341;BME280;35209;51.050;13.678;2023-04-06T03:36:34;100408.22;;;-0.90;87.35
49341;BME280;35209;51.050;13.678;2023-04-06T03:41:38;100404.97;;;-0.80;86.83
49341;BME280;35209;51.050;13.678;2023-04-06T03:46:51;100408.31;;;-0.40;86.24
49341;BME280;35209;51.050;13.678;2023-04-06T03:51:53;100413.63;;;-0.33;85.23
49341;BME280;35209;51.050;13.678;2023-04-06T03:56:55;100426.97;;;-0.57;86.44
49341;BME280;35209;51.050;13.678;2023-04-06T04:02:00;100422.59;;;-0.59;86.51
49341;BME280;35209;51.050;13.678;2023-04-06T04:07:03;100427.50;;;-0.73;87.16
49341;BME280;35209;51.050;13.678;2023-04-06T04:12:06;100428.84;;;-0.92;87.99
49341;BME280;35209;51.050;13.678;2023-04-06T04:17:07;100426.56;;;-1.17;88.63
49341;BME280;35209;51.050;13.678;2023-04-06T04:22:09;100426.19;;;-1.34;90.44
49341;BME280;35209;51.050;13.678;2023-04-06T04:27:14;100417.88;;;-1.22;89.43
49341;BME280;35209;51.050;13.678;2023-04-06T04:32:16;100424.56;;;-0.91;86.87
49341;BME280;35209;51.050;13.678;2023-04-06T04:37:20;100423.91;;;-1.22;88.38
49341;BME280;35209;51.050;13.678;2023-04-06T04:42:26;100427.16;;;-1.29;89.02
49341;BME280;35209;51.050;13.678;2023-04-06T04:47:32;100429.63;;;-0.94;88.54
49341;BME280;35209;51.050;13.678;2023-04-06T04:52:34;100433.34;;;-0.83;87.92
49341;BME280;35209;51.050;13.678;2023-04-06T04:57:56;100433.75;;;-1.04;88.79
49341;BME280;35209;51.050;13.678;2023-04-06T05:03:21;100440.31;;;-1.18;90.44
49341;BME280;35209;51.050;13.678;2023-04-06T05:08:31;100435.16;;;-1.18;91.23
49341;BME280;35209;51.050;13.678;2023-04-06T05:13:34;100440.81;;;-0.94;91.22
49341;BME280;35209;51.050;13.678;2023-04-06T05:18:43;100440.09;;;-0.88;90.84
49341;BME280;35209;51.050;13.678;2023-04-06T05:23:45;100434.94;;;-0.88;91.31
49341;BME280;35209;51.050;13.678;2023-04-06T05:28:47;100443.88;;;-0.71;90.46
49341;BME280;35209;51.050;13.678;2023-04-06T05:33:50;100446.81;;;-0.09;86.91
49341;BME280;35209;51.050;13.678;2023-04-06T05:39:04;100444.41;;;0.02;84.31
49341;BME280;35209;51.050;13.678;2023-04-06T05:44:14;100457.31;;;0.01;84.22
49341;BME280;35209;51.050;13.678;2023-04-06T05:49:21;100451.97;;;0.41;82.31
49341;BME280;35209;51.050;13.678;2023-04-06T05:54:23;100442.94;;;0.72;78.67
49341;BME280;35209;51.050;13.678;2023-04-06T05:59:31;100449.78;;;0.69;79.38
49341;BME280;35209;51.050;13.678;2023-04-06T06:04:34;100454.25;;;1.43;77.03
49341;BME280;35209;51.050;13.678;2023-04-06T06:09:37;100448.56;;;2.75;69.41
49341;BME280;35209;51.050;13.678;2023-04-06T06:14:50;100463.66;;;3.48;67.39
49341;BME280;35209;51.050;13.678;2023-04-06T06:19:54;100461.16;;;3.85;62.90
49341;BME280;35209;51.050;13.678;2023-04-06T06:24:56;100461.84;;;3.30;64.84
49341;BME280;35209;51.050;13.678;2023-04-06T06:29:58;100459.06;;;2.95;66.25
49341;BME280;35209;51.050;13.678;2023-04-06T06:35:04;100453.88;;;2.99;67.18
49341;BME280;35209;51.050;13.678;2023-04-06T06:40:09;100445.44;;;3.42;65.31
49341;BME280;35209;51.050;13.678;2023-04-06T06:45:11;100450.56;;;3.29;64.93
49341;BME280;35209;51.050;13.678;2023-04-06T06:50:14;100450.69;;;3.56;65.82
49341;BME280;35209;51.050;13.678;2023-04-06T06:55:16;100455.09;;;3.92;63.88
49341;BME280;35209;51.050;13.678;2023-04-06T07:00:20;100453.38;;;3.86;62.61
49341;BME280;35209;51.050;13.678;2023-04-06T07:05:23;100454.25;;;3.91;61.98
49341;BME280;35209;51.050;13.678;2023-04-06T07:10:31;100454.28;;;4.22;62.31
49341;BME280;35209;51.050;13.678;2023-04-06T07:15:33;100456.00;;;4.67;59.66
49341;BME280;35209;51.050;13.678;2023-04-06T07:20:36;100462.09;;;4.74;60.01
49341;BME280;35209;51.050;13.678;2023-04-06T07:25:38;100456.88;;;4.80;59.57
49341;BME280;35209;51.050;13.678;2023-04-06T07:30:40;100464.63;;;5.03;58.63
49341;BME280;35209;51.050;13.678;2023-04-06T07:35:44;100456.75;;;5.26;58.22
49341;BME280;35209;51.050;13.678;2023-04-06T07:40:47;100458.50;;;5.21;57.24
49341;BME280;35209;51.050;13.678;2023-04-06T07:45:49;100458.38;;;5.51;56.61
49341;BME280;35209;51.050;13.678;2023-04-06T07:50:54;100457.63;;;5.17;56.37
49341;BME280;35209;51.050;13.678;2023-04-06T07:56:05;100458.47;;;5.30;56.11
49341;BME280;35209;51.050;13.678;2023-04-06T08:01:07;100456.66;;;5.47;56.30
49341;BME280;35209;51.050;13.678;2023-04-06T08:06:09;100444.81;;;6.37;53.15
49341;BME280;35209;51.050;13.678;2023-04-06T08:11:11;100448.16;;;6.57;51.50
49341;BME280;35209;51.050;13.678;2023-04-06T08:16:13;100455.34;;;7.23;50.02
49341;BME280;35209;51.050;13.678;2023-04-06T08:21:18;100440.91;;;7.61;48.43
49341;BME280;35209;51.050;13.678;2023-04-06T08:26:19;100448.47;;;7.82;46.62
49341;BME280;35209;51.050;13.678;2023-04-06T08:31:22;100448.94;;;8.11;46.58
49341;BME280;35209;51.050;13.678;2023-04-06T08:36:24;100448.56;;;8.37;44.61
49341;BME280;35209;51.050;13.678;2023-04-06T08:41:27;100442.41;;;8.36;43.68
49341;BME280;35209;51.050;13.678;2023-04-06T08:46:30;100443.19;;;8.44;42.19
49341;BME280;35209;51.050;13.678;2023-04-06T08:51:32;100443.00;;;8.56;40.42
49341;BME280;35209;51.050;13.678;2023-04-06T08:56:37;100442.09;;;8.57;39.35
49341;BME280;35209;51.050;13.678;2023-04-06T09:01:40;100441.69;;;8.80;39.66
49341;BME280;35209;51.050;13.678;2023-04-06T09:06:45;100449.16;;;9.03;38.29
49341;BME280;35209;51.050;13.678;2023-04-06T09:11:51;100439.69;;;9.40;36.50
49341;BME280;35209;51.050;13.678;2023-04-06T09:16:53;100431.47;;;9.56;37.75
49341;BME280;35209;51.050;13.678;2023-04-06T09:22:05;100432.44;;;9.51;37.14
49341;BME280;35209;51.050;13.678;2023-04-06T09:27:09;100428.09;;;9.92;36.62
49341;BME280;35209;51.050;13.678;2023-04-06T09:32:11;100431.19;;;10.46;35.93
49341;BME280;35209;51.050;13.678;2023-04-06T09:37:17;100426.06;;;10.74;35.31
49341;BME280;35209;51.050;13.678;2023-04-06T09:42:24;100420.69;;;11.43;31.90
49341;BME280;35209;51.050;13.678;2023-04-06T09:47:27;100415.41;;;11.43;32.92
49341;BME280;35209;51.050;13.678;2023-04-06T09:52:37;100419.97;;;11.97;31.61
49341;BME280;35209;51.050;13.678;2023-04-06T10:08:33;100405.91;;;11.67;29.03
49341;BME280;35209;51.050;13.678;2023-04-06T10:13:37;100404.97;;;10.43;31.46
49341;BME280;35209;51.050;13.678;2023-04-06T10:18:39;100400.31;;;10.19;32.64
49341;BME280;35209;51.050;13.678;2023-04-06T10:24:00;100401.66;;;9.59;31.86
49341;BME280;35209;51.050;13.678;2023-04-06T10:29:05;100400.75;;;9.20;32.79
49341;BME280;35209;51.050;13.678;2023-04-06T10:34:07;100398.66;;;10.15;31.60
49341;BME280;35209;51.050;13.678;2023-04-06T10:39:10;100393.03;;;10.30;30.17
49341;BME280;35209;51.050;13.678;2023-04-06T10:44:22;100394.25;;;11.16;30.17
49341;BME280;35209;51.050;13.678;2023-04-06T10:49:27;100391.81;;;11.69;30.98
49341;BME280;35209;51.050;13.678;2023-04-06T10:54:29;100378.66;;;11.68;31.38
49341;BME280;35209;51.050;13.678;2023-04-06T10:59:33;100390.56;;;12.62;29.22
49341;BME280;35209;51.050;13.678;2023-04-06T11:04:35;100376.97;;;12.48;28.02
49341;BME280;35209;51.050;13.678;2023-04-06T11:09:37;100377.06;;;12.71;29.09
49341;BME280;35209;51.050;13.678;2023-04-06T11:14:40;100366.19;;;12.80;31.10
49341;BME280;35209;51.050;13.678;2023-04-06T11:19:43;100361.63;;;12.07;28.89
49341;BME280;35209;51.050;13.678;2023-04-06T11:24:45;100364.78;;;11.62;29.01
49341;BME280;35209;51.050;13.678;2023-04-06T11:29:47;100354.81;;;10.83;30.57
49341;BME280;35209;51.050;13.678;2023-04-06T11:34:49;100353.59;;;10.64;29.42
49341;BME280;35209;51.050;13.678;2023-04-06T11:39:54;100350.56;;;10.11;31.85
49341;BME280;35209;51.050;13.678;2023-04-06T11:44:57;100348.00;;;10.09;32.13
49341;BME280;35209;51.050;13.678;2023-04-06T11:50:10;100351.63;;;11.33;32.15
49341;BME280;35209;51.050;13.678;2023-04-06T11:55:17;100341.69;;;12.27;31.27
49341;BME280;35209;51.050;13.678;2023-04-06T12:00:20;100339.91;;;12.01;29.59
49341;BME280;35209;51.050;13.678;2023-04-06T12:05:23;100340.25;;;12.17;30.95
49341;BME280;35209;51.050;13.678;2023-04-06T12:10:26;100340.63;;;12.06;30.74
49341;BME280;35209;51.050;13.678;2023-04-06T12:15:28;100326.16;;;11.05;30.72
49341;BME280;35209;51.050;13.678;2023-04-06T12:20:31;100329.50;;;10.79;32.91
49341;BME280;35209;51.050;13.678;2023-04-06T12:25:33;100323.22;;;10.54;32.77
49341;BME280;35209;51.050;13.678;2023-04-06T12:30:35;100317.00;;;10.89;31.98
49341;BME280;35209;51.050;13.678;2023-04-06T12:35:37;100314.97;;;10.66;32.33
49341;BME280;35209;51.050;13.678;2023-04-06T12:40:40;100309.66;;;10.37;32.58
49341;BME280;35209;51.050;13.678;2023-04-06T12:45:42;100300.25;;;10.60;32.96
49341;BME280;35209;51.050;13.678;2023-04-06T12:50:44;100302.16;;;10.55;31.86
49341;BME280;35209;51.050;13.678;2023-04-06T12:55:46;100289.31;;;10.76;31.60
49341;BME280;35209;51.050;13.678;2023-04-06T13:00:49;100287.75;;;11.28;32.19
49341;BME280;35209;51.050;13.678;2023-04-06T13:05:51;100289.38;;;11.33;31.36
49341;BME280;35209;51.050;13.678;2023-04-06T13:10:54;100280.56;;;11.05;31.95
49341;BME280;35209;51.050;13.678;2023-04-06T13:16:08;100282.69;;;10.92;31.61
49341;BME280;35209;51.050;13.678;2023-04-06T13:21:14;100279.34;;;10.87;31.80
49341;BME280;35209;51.050;13.678;2023-04-06T13:26:17;100283.38;;;10.99;32.54
49341;BME280;35209;51.050;13.678;2023-04-06T13:31:19;100271.44;;;10.87;31.64
49341;BME280;35209;51.050;13.678;2023-04-06T13:36:21;100272.75;;;10.72;32.54
49341;BME280;35209;51.050;13.678;2023-04-06T13:41:24;100266.25;;;10.54;31.99
49341;BME280;35209;51.050;13.678;2023-04-06T13:46:27;100259.25;;;10.21;32.61
49341;BME280;35209;51.050;13.678;2023-04-06T13:51:29;100250.38;;;10.26;31.46
49341;BME280;35209;51.050;13.678;2023-04-06T13:56:32;100246.88;;;10.58;32.26
49341;BME280;35209;51.050;13.678;2023-04-06T14:01:34;100242.28;;;10.34;31.96
49341;BME280;35209;51.050;13.678;2023-04-06T14:06:36;100244.97;;;9.98;32.05
49341;BME280;35209;51.050;13.678;2023-04-06T14:11:38;100239.66;;;10.00;32.08
49341;BME280;35209;51.050;13.678;2023-04-06T14:16:40;100239.72;;;9.98;31.94
49341;BME280;35209;51.050;13.678;2023-04-06T14:21:45;100244.03;;;10.01;32.24
49341;BME280;35209;51.050;13.678;2023-04-06T14:26:47;100244.06;;;9.99;32.52
49341;BME280;35209;51.050;13.678;2023-04-06T14:31:49;100241.97;;;10.12;31.88
49341;BME280;35209;51.050;13.678;2023-04-06T14:36:50;100233.22;;;10.11;33.29
49341;BME280;35209;51.050;13.678;2023-04-06T14:41:52;100232.13;;;9.86;31.66
49341;BME280;35209;51.050;13.678;2023-04-06T14:46:54;100225.53;;;10.05;32.19
49341;BME280;35209;51.050;13.678;2023-04-06T14:51:56;100222.97;;;10.02;32.96
49341;BME280;35209;51.050;13.678;2023-04-06T14:56:58;100223.78;;;10.04;32.35
49341;BME280;35209;51.050;13.678;2023-04-06T15:02:01;100220.41;;;9.99;33.00
49341;BME280;35209;51.050;13.678;2023-04-06T15:07:04;100229.09;;;10.03;33.71
49341;BME280;35209;51.050;13.678;2023-04-06T15:12:06;100225.66;;;9.99;32.78
49341;BME280;35209;51.050;13.678;2023-04-06T15:17:08;100217.34;;;9.82;34.16
49341;BME280;35209;51.050;13.678;2023-04-06T15:22:10;100222.66;;;9.80;33.87
49341;BME280;35209;51.050;13.678;2023-04-06T15:27:12;100220.91;;;9.81;33.59
49341;BME280;35209;51.050;13.678;2023-04-06T15:32:15;100229.56;;;9.84;33.24
49341;BME280;35209;51.050;13.678;2023-04-06T15:37:19;100219.03;;;9.50;34.43
49341;BME280;35209;51.050;13.678;2023-04-06T15:42:21;100209.09;;;9.97;32.81
49341;BME280;35209;51.050;13.678;2023-04-06T15:47:23;100213.88;;;9.81;33.85
49341;BME280;35209;51.050;13.678;2023-04-06T15:52:25;100211.28;;;9.46;34.60
49341;BME280;35209;51.050;13.678;2023-04-06T15:57:27;100211.31;;;9.44;33.30
49341;BME280;35209;51.050;13.678;2023-04-06T16:02:29;100215.66;;;9.45;34.28
49341;BME280;35209;51.050;13.678;2023-04-06T16:07:31;100212.28;;;9.40;33.89
49341;BME280;35209;51.050;13.678;2023-04-06T16:12:34;100212.34;;;9.39;34.37
49341;BME280;35209;51.050;13.678;2023-04-06T16:17:36;100221.75;;;9.10;34.24
49341;BME280;35209;51.050;13.678;2023-04-06T16:22:38;100216.75;;;9.37;33.79
49341;BME280;35209;51.050;13.678;2023-04-06T16:27:40;100214.66;;;9.14;34.66
49341;BME280;35209;51.050;13.678;2023-04-06T16:32:42;100214.81;;;9.07;35.57
49341;BME280;35209;51.050;13.678;2023-04-06T16:37:45;100209.53;;;9.09;34.25
49341;BME280;35209;51.050;13.678;2023-04-06T16:42:47;100207.84;;;9.44;34.53
49341;BME280;35209;51.050;13.678;2023-04-06T16:47:48;100213.38;;;9.31;34.63
49341;BME280;35209;51.050;13.678;2023-04-06T16:52:51;100211.19;;;9.12;34.62
49341;BME280;35209;51.050;13.678;2023-04-06T16:57:54;100205.31;;;9.02;34.91
49341;BME280;35209;51.050;13.678;2023-04-06T17:02:59;100207.34;;;8.89;35.08
49341;BME280;35209;51.050;13.678;2023-04-06T17:08:01;100212.31;;;9.01;34.93
49341;BME280;35209;51.050;13.678;2023-04-06T17:13:03;100206.38;;;8.93;35.04
49341;BME280;35209;51.050;13.678;2023-04-06T17:18:06;100208.59;;;8.73;35.74
49341;BME280;35209;51.050;13.678;2023-04-06T17:23:08;100209.03;;;8.50;36.30
49341;BME280;35209;51.050;13.678;2023-04-06T17:28:10;100207.47;;;8.43;36.39
49341;BME280;35209;51.050;13.678;2023-04-06T17:33:12;100222.38;;;8.39;37.05
49341;BME280;35209;51.050;13.678;2023-04-06T17:38:14;100224.91;;;8.44;36.88
49341;BME280;35209;51.050;13.678;2023-04-06T17:43:16;100231.50;;;8.17;37.33
49341;BME280;35209;51.050;13.678;2023-04-06T17:48:18;100239.28;;;8.21;37.26
49341;BME280;35209;51.050;13.678;2023-04-06T17:53:20;100242.75;;;8.22;37.24
49341;BME280;35209;51.050;13.678;2023-04-06T17:58:22;100236.47;;;7.84;38.14
49341;BME280;35209;51.050;13.678;2023-04-06T18:03:24;100241.72;;;7.84;37.98
49341;BME280;35209;51.050;13.678;2023-04-06T18:08:26;100251.47;;;7.73;38.14
49341;BME280;35209;51.050;13.678;2023-04-06T18:13:27;100248.34;;;7.51;38.75
49341;BME280;35209;51.050;13.678;2023-04-06T18:18:29;100255.47;;;7.41;38.98
49341;BME280;35209;51.050;13.678;2023-04-06T18:23:32;100253.19;;;7.20;39.08
49341;BME280;35209;51.050;13.678;2023-04-06T18:28:34;100259.13;;;7.31;39.09
49341;BME280;35209;51.050;13.678;2023-04-06T18:33:36;100260.41;;;6.99;39.90
49341;BME280;35209;51.050;13.678;2023-04-06T18:38:44;100265.84;;;6.87;43.31
49341;BME280;35209;51.050;13.678;2023-04-06T18:43:48;100269.41;;;6.80;44.19
49341;BME280;35209;51.050;13.678;2023-04-06T18:48:50;100262.63;;;6.64;41.66
49341;BME280;35209;51.050;13.678;2023-04-06T18:53:51;100272.31;;;6.55;41.91
49341;BME280;35209;51.050;13.678;2023-04-06T18:58:53;100274.31;;;6.32;45.29
49341;BME280;35209;51.050;13.678;2023-04-06T19:03:56;100279.69;;;6.15;47.86
49341;BME280;35209;51.050;13.678;2023-04-06T19:08:59;100271.22;;;5.93;48.66
49341;BME280;35209;51.050;13.678;2023-04-06T19:14:01;100276.47;;;5.84;49.67
49341;BME280;35209;51.050;13.678;2023-04-06T19:19:03;100277.56;;;5.57;48.42
49341;BME280;35209;51.050;13.678;2023-04-06T19:24:05;100270.78;;;5.36;48.30
49341;BME280;35209;51.050;13.678;2023-04-06T19:29:08;100267.41;;;5.19;49.17
49341;BME280;35209;51.050;13.678;2023-04-06T19:34:10;100276.06;;;5.24;49.24
49341;BME280;35209;51.050;13.678;2023-04-06T19:39:17;100271.84;;;5.00;50.71
49341;BME280;35209;51.050;13.678;2023-04-06T19:44:19;100272.59;;;5.23;50.70
49341;BME280;35209;51.050;13.678;2023-04-06T19:49:21;100269.25;;;4.98;52.34
49341;BME280;35209;51.050;13.678;2023-04-06T19:54:23;100270.97;;;4.99;53.00
49341;BME280;35209;51.050;13.678;2023-04-06T19:59:25;100278.88;;;4.86;52.79
49341;BME280;35209;51.050;13.678;2023-04-06T20:04:27;100275.47;;;4.70;54.22
49341;BME280;35209;51.050;13.678;2023-04-06T20:09:29;100278.19;;;4.32;55.17
49341;BME280;35209;51.050;13.678;2023-04-06T20:14:30;100277.38;;;4.10;55.66
49341;BME280;35209;51.050;13.678;2023-04-06T20:19:32;100283.44;;;3.89;56.74
49341;BME280;35209;51.050;13.678;2023-04-06T20:24:34;100288.63;;;4.05;59.12
49341;BME280;35209;51.050;13.678;2023-04-06T20:29:36;100291.22;;;4.27;56.20
49341;BME280;35209;51.050;13.678;2023-04-06T20:34:37;100282.59;;;4.03;57.15
49341;BME280;35209;51.050;13.678;2023-04-06T20:39:39;100282.59;;;3.94;57.66
49341;BME280;35209;51.050;13.678;2023-04-06T20:44:42;100277.41;;;3.50;57.38
49341;BME280;35209;51.050;13.678;2023-04-06T20:49:44;100274.81;;;3.54;56.79
49341;BME280;35209;51.050;13.678;2023-04-06T20:54:46;100280.88;;;3.78;55.92
49341;BME280;35209;51.050;13.678;2023-04-06T20:59:49;100281.72;;;3.54;56.94
49341;BME280;35209;51.050;13.678;2023-04-06T21:04:50;100278.19;;;3.17;58.32
49341;BME280;35209;51.050;13.678;2023-04-06T21:09:52;100272.22;;;3.54;59.47
49341;BME280;35209;51.050;13.678;2023-04-06T21:14:54;100277.41;;;3.54;58.17
49341;BME280;35209;51.050;13.678;2023-04-06T21:19:56;100275.66;;;3.55;58.74
49341;BME280;35209;51.050;13.678;2023-04-06T21:24:57;100271.25;;;2.99;59.80
49341;BME280;35209;51.050;13.678;2023-04-06T21:29:59;100271.28;;;3.22;60.65
49341;BME280;35209;51.050;13.678;2023-04-06T21:35:01;100272.97;;;2.98;61.57
49341;BME280;35209;51.050;13.678;2023-04-06T21:40:03;100271.22;;;2.94;61.06
49341;BME280;35209;51.050;13.678;2023-04-06T21:45:06;100275.44;;;2.63;62.46
49341;BME280;35209;51.050;13.678;2023-04-06T21:50:08;100262.50;;;2.74;62.97
49341;BME280;35209;51.050;13.678;2023-04-06T21:55:10;100265.81;;;2.42;63.08
49341;BME280;35209;51.050;13.678;2023-04-06T22:00:12;100264.06;;;2.32;63.98
49341;BME280;35209;51.050;13.678;2023-04-06T22:05:17;100262.34;;;2.42;64.50
49341;BME280;35209;51.050;13.678;2023-04-06T22:10:19;100259.91;;;2.72;64.34
49341;BME280;35209;51.050;13.678;2023-04-06T22:15:20;100258.06;;;2.44;65.30
49341;BME280;35209;51.050;13.678;2023-04-06T22:20:22;100256.22;;;2.24;64.24
49341;BME280;35209;51.050;13.678;2023-04-06T22:25:24;100252.72;;;2.21;66.23
49341;BME280;35209;51.050;13.678;2023-04-06T22:30:26;100263.22;;;2.36;65.42
49341;BME280;35209;51.050;13.678;2023-04-06T22:35:27;100250.03;;;2.01;65.25
49341;BME280;35209;51.050;13.678;2023-04-06T22:40:29;100251.06;;;2.26;66.59
49341;BME280;35209;51.050;13.678;2023-04-06T22:45:30;100242.31;;;2.09;67.31
49341;BME280;35209;51.050;13.678;2023-04-06T22:50:32;100250.81;;;1.86;67.35
49341;BME280;35209;51.050;13.678;2023-04-06T22:55:34;100243.16;;;2.06;67.91
49341;BME280;35209;51.050;13.678;2023-04-06T23:00:36;100239.66;;;1.99;68.50
49341;BME280;35209;51.050;13.678;2023-04-06T23:05:38;100235.31;;;1.95;68.14
49341;BME280;35209;51.050;13.678;2023-04-06T23:10:39;100237.72;;;1.72;69.27
49341;BME280;35209;51.050;13.678;2023-04-06T23:15:43;100242.28;;;2.06;69.44
49341;BME280;35209;51.050;13.678;2023-04-06T23:20:44;100234.34;;;1.78;69.87
49341;BME280;35209;51.050;13.678;2023-04-06T23:25:46;100228.25;;;1.76;70.87
49341;BME280;35209;51.050;13.678;2023-04-06T23:30:48;100236.00;;;1.70;71.38
49341;BME280;35209;51.050;13.678;2023-04-06T23:35:50;100234.28;;;1.70;71.45
49341;BME280;35209;51.050;13.678;2023-04-06T23:40:52;100223.28;;;2.05;71.14
49341;BME280;35209;51.050;13.678;2023-04-06T23:45:54;100220.69;;;2.05;70.37
49341;BME280;35209;51.050;13.678;2023-04-06T23:50:57;100223.25;;;2.00;70.23
49341;BME280;35209;51.050;13.678;2023-04-06T23:55:59;100221.59;;;2.13;70.06
